Time;durP1;ratioP1;P1;durP2;ratioP2;P2;SDS_P1;SDS_P2;PMS_P1;PMS_P2;Temp;Humidity;BMP_temperature;BMP_pressure;BME280_temperature;BME280_humidity;BME280_pressure;Samples;Min_cycle;Max_cycle;Signal;HPM_P1;HPM_P2
2023/03/02 00:01:05;;;;;;;25.10;16.75;;;2.00;99.90;;;;;;5063296;28;20056;-74
2023/03/02 00:03:32;;;;;;;24.13;16.10;;;2.70;99.90;;;;;;5048273;28;20090;-75
2023/03/02 00:05:58;;;;;;;26.25;15.80;;;3.10;99.90;;;;;;5037460;28;20414;-75
2023/03/02 00:08:26;;;;;;;25.52;16.50;;;2.70;99.90;;;;;;5054445;28;20036;-75
2023/03/02 00:10:53;;;;;;;26.67;16.52;;;2.70;99.90;;;;;;5055624;28;20075;-75
2023/03/02 00:13:19;;;;;;;23.55;15.27;;;2.60;99.90;;;;;;5046007;28;20052;-76
2023/03/02 00:15:45;;;;;;;24.65;16.33;;;2.60;99.90;;;;;;5041385;28;20133;-76
2023/03/02 00:18:11;;;;;;;26.80;16.83;;;2.60;99.90;;;;;;5059544;28;20070;-76
2023/03/02 00:20:37;;;;;;;27.48;16.70;;;2.60;99.90;;;;;;5047419;28;20143;-76
2023/03/02 00:23:03;;;;;;;28.23;16.92;;;2.60;99.90;;;;;;5051807;28;20053;-76
2023/03/02 00:25:29;;;;;;;28.25;17.27;;;2.50;99.90;;;;;;5041196;28;20041;-76
2023/03/02 00:27:55;;;;;;;27.27;17.10;;;2.60;99.90;;;;;;5028839;28;20046;-76
2023/03/02 00:30:21;;;;;;;30.10;17.60;;;3.20;99.90;;;;;;5052657;28;20029;-75
2023/03/02 00:32:46;;;;;;;27.95;17.50;;;2.50;99.90;;;;;;5055746;28;20044;-76
2023/03/02 00:35:13;;;;;;;27.75;16.33;;;2.50;99.90;;;;;;5033614;28;20045;-76
2023/03/02 00:37:39;;;;;;;24.52;15.55;;;2.50;99.90;;;;;;5050569;28;20044;-77
2023/03/02 00:40:08;;;;;;;24.17;15.55;;;2.50;99.90;;;;;;5053385;28;20801;-76
2023/03/02 00:42:35;;;;;;;23.40;15.15;;;2.50;99.90;;;;;;5035632;28;20051;-76
2023/03/02 00:45:01;;;;;;;22.92;15.23;;;3.30;99.90;;;;;;5053167;28;20430;-77
2023/03/02 00:47:33;;;;;;;25.00;15.38;;;2.50;99.90;;;;;;5039116;28;20044;-76
2023/03/02 00:50:04;;;;;;;23.85;15.15;;;2.50;99.90;;;;;;5036879;28;20036;-75
2023/03/02 00:52:31;;;;;;;24.70;16.10;;;2.50;99.90;;;;;;5052879;28;20052;-76
2023/03/02 00:54:57;;;;;;;24.45;15.60;;;2.50;99.90;;;;;;5055751;28;20045;-75
2023/03/02 00:57:23;;;;;;;27.33;15.20;;;3.10;99.90;;;;;;5058274;28;20120;-76
2023/03/02 00:59:49;;;;;;;28.35;16.88;;;2.40;99.90;;;;;;5054812;28;20040;-75
2023/03/02 01:02:15;;;;;;;23.58;15.23;;;2.60;99.90;;;;;;5051876;28;20067;-77
2023/03/02 01:04:42;;;;;;;25.85;16.60;;;2.40;99.90;;;;;;5037030;28;20051;-77
2023/03/02 01:07:14;;;;;;;27.58;16.25;;;2.50;99.90;;;;;;5040892;28;20049;-76
2023/03/02 01:09:42;;;;;;;26.15;16.77;;;2.40;99.90;;;;;;5024008;28;20136;-76
2023/03/02 01:12:10;;;;;;;29.92;17.15;;;2.30;99.90;;;;;;5032879;28;20446;-76
2023/03/02 01:14:41;;;;;;;25.30;16.67;;;3.00;99.90;;;;;;5015069;28;20503;-75
2023/03/02 01:17:09;;;;;;;25.83;16.20;;;2.30;99.90;;;;;;5027051;28;20043;-76
2023/03/02 01:19:35;;;;;;;28.52;16.63;;;3.10;99.90;;;;;;5037083;28;20086;-75
2023/03/02 01:22:02;;;;;;;28.70;15.23;;;2.30;99.90;;;;;;5050373;28;20044;-75
2023/03/02 01:24:28;;;;;;;22.60;14.75;;;2.30;99.90;;;;;;5054402;28;20052;-75
2023/03/02 01:26:54;;;;;;;23.42;14.40;;;2.30;99.90;;;;;;5020903;28;20114;-76
2023/03/02 01:29:20;;;;;;;21.65;13.45;;;2.30;99.90;;;;;;5029982;28;20464;-77
2023/03/02 01:31:46;;;;;;;22.30;14.40;;;2.30;99.90;;;;;;5033129;28;20116;-77
2023/03/02 01:34:12;;;;;;;20.67;12.00;;;2.30;99.90;;;;;;5050469;28;20869;-76
2023/03/02 01:36:37;;;;;;;21.13;13.38;;;2.30;99.90;;;;;;5041750;28;20049;-75
2023/03/02 01:39:04;;;;;;;19.00;12.48;;;2.30;99.90;;;;;;5016461;28;20082;-75
2023/03/02 01:41:30;;;;;;;21.10;11.95;;;2.30;99.90;;;;;;5036878;28;20136;-75
2023/03/02 01:43:56;;;;;;;20.70;12.52;;;2.30;99.90;;;;;;5052131;28;20490;-76
2023/03/02 01:46:27;;;;;;;20.85;11.73;;;2.20;99.90;;;;;;5050224;28;20464;-75
2023/03/02 01:49:00;;;;;;;20.52;11.98;;;2.20;99.90;;;;;;5040696;28;20075;-76
2023/03/02 01:51:28;;;;;;;20.10;11.82;;;2.20;99.90;;;;;;5016692;28;20049;-75
2023/03/02 01:54:02;;;;;;;21.33;12.95;;;2.40;99.90;;;;;;5051741;28;20179;-75
2023/03/02 01:56:33;;;;;;;23.90;14.55;;;2.20;99.90;;;;;;5058589;28;20040;-74
2023/03/02 01:59:13;;;;;;;21.30;13.02;;;2.20;99.90;;;;;;5036964;28;20830;-75
2023/03/02 02:01:41;;;;;;;20.98;13.40;;;2.10;99.90;;;;;;5054041;28;20124;-76
2023/03/02 02:04:07;;;;;;;30.73;14.40;;;2.50;99.90;;;;;;5054336;28;20044;-76
2023/03/02 02:06:59;;;;;;;25.10;14.93;;;2.10;99.90;;;;;;5036305;28;20410;-75
2023/03/02 02:09:29;;;;;;;26.45;15.15;;;2.10;99.90;;;;;;5040827;28;22151;-75
2023/03/02 02:11:55;;;;;;;27.02;15.00;;;2.00;99.90;;;;;;5057192;28;20036;-76
2023/03/02 02:14:21;;;;;;;22.92;14.13;;;2.10;99.90;;;;;;5051084;28;20052;-76
2023/03/02 02:16:47;;;;;;;26.63;16.63;;;1.90;99.90;;;;;;5042869;28;20047;-76
2023/03/02 02:19:36;;;;;;;26.60;15.73;;;1.90;99.90;;;;;;5053356;28;20048;-77
2023/03/02 02:22:05;;;;;;;26.75;16.15;;;1.90;99.90;;;;;;5043418;28;20060;-75
2023/03/02 02:24:36;;;;;;;29.67;16.85;;;1.90;99.90;;;;;;5038428;28;20044;-76
2023/03/02 02:27:03;;;;;;;31.15;17.98;;;1.90;99.90;;;;;;5057105;28;20060;-76
2023/03/02 02:29:33;;;;;;;32.40;17.60;;;1.80;99.90;;;;;;5018025;28;20405;-76
2023/03/02 02:32:21;;;;;;;29.63;17.55;;;2.20;99.90;;;;;;5051035;28;20033;-75
2023/03/02 02:34:52;;;;;;;31.58;17.77;;;1.80;99.90;;;;;;5061849;28;20048;-75
2023/03/02 02:37:22;;;;;;;31.25;18.85;;;1.80;99.90;;;;;;5038955;28;20059;-77
2023/03/02 02:39:50;;;;;;;32.03;17.45;;;1.80;99.90;;;;;;5037950;28;20051;-77
2023/03/02 02:42:27;;;;;;;29.48;16.67;;;2.40;99.90;;;;;;5061188;28;20041;-77
2023/03/02 02:44:56;;;;;;;29.67;17.23;;;1.80;99.90;;;;;;5040330;28;20070;-75
2023/03/02 02:47:23;;;;;;;30.90;16.85;;;2.70;99.90;;;;;;5031899;28;20048;-75
2023/03/02 02:49:52;;;;;;;33.47;19.10;;;1.80;99.90;;;;;;5057283;28;20060;-76
2023/03/02 02:52:21;;;;;;;34.50;19.10;;;1.80;99.90;;;;;;5042097;28;20128;-76
2023/03/02 02:54:50;;;;;;;33.75;18.48;;;1.80;99.90;;;;;;5057409;28;20048;-76
2023/03/02 02:57:18;;;;;;;30.40;17.73;;;1.90;99.90;;;;;;5037787;28;20057;-75
2023/03/02 02:59:48;;;;;;;31.50;17.73;;;1.80;99.90;;;;;;5062865;28;20111;-75
2023/03/02 03:02:24;;;;;;;30.67;17.63;;;1.80;99.90;;;;;;5019127;28;20083;-74
2023/03/02 03:04:50;;;;;;;31.23;17.70;;;1.90;99.90;;;;;;5039913;28;20058;-75
2023/03/02 03:07:23;;;;;;;33.78;18.10;;;1.90;99.90;;;;;;5037342;28;20162;-75
2023/03/02 03:10:33;;;;;;;31.80;19.55;;;1.90;99.90;;;;;;5056578;28;20123;-75
2023/03/02 03:13:00;;;;;;;36.05;20.23;;;1.90;99.90;;;;;;5042021;28;20136;-76
2023/03/02 03:15:26;;;;;;;35.10;20.00;;;1.90;99.90;;;;;;5052159;28;20074;-76
2023/03/02 03:17:56;;;;;;;38.03;19.58;;;1.90;99.90;;;;;;5063607;28;20037;-77
2023/03/02 03:20:23;;;;;;;41.53;21.07;;;1.90;99.90;;;;;;5061177;28;20048;-77
2023/03/02 03:22:52;;;;;;;39.17;21.13;;;1.90;99.90;;;;;;5039980;28;20085;-77
2023/03/02 03:25:18;;;;;;;41.00;20.65;;;1.90;99.90;;;;;;5065014;28;20049;-76
2023/03/02 03:27:44;;;;;;;37.33;20.48;;;1.90;99.90;;;;;;5057179;28;20041;-76
2023/03/02 03:30:13;;;;;;;37.15;18.90;;;1.90;99.90;;;;;;5058210;28;20055;-76
2023/03/02 03:32:40;;;;;;;33.45;19.23;;;1.90;99.90;;;;;;5064342;28;20059;-76
2023/03/02 03:35:09;;;;;;;32.05;19.33;;;1.90;99.90;;;;;;5061194;28;20055;-76
2023/03/02 03:37:36;;;;;;;33.78;19.10;;;1.90;99.90;;;;;;5047673;28;20047;-77
2023/03/02 03:40:04;;;;;;;34.42;20.10;;;1.90;99.90;;;;;;5048237;28;20101;-77
2023/03/02 03:42:30;;;;;;;36.63;20.63;;;1.80;99.90;;;;;;5061999;28;20039;-77
2023/03/02 03:44:56;;;;;;;36.50;20.30;;;1.90;99.90;;;;;;5056205;28;20119;-77
2023/03/02 03:47:22;;;;;;;35.45;20.23;;;1.80;99.90;;;;;;5054244;28;20133;-76
2023/03/02 03:49:48;;;;;;;39.88;20.85;;;1.80;99.90;;;;;;5037569;28;20136;-76
2023/03/02 03:52:14;;;;;;;38.67;20.45;;;1.70;99.90;;;;;;5061196;28;20048;-77
2023/03/02 03:54:40;;;;;;;38.60;20.13;;;1.80;99.90;;;;;;5056328;28;20090;-77
2023/03/02 03:57:05;;;;;;;40.47;22.00;;;1.70;99.90;;;;;;5016284;28;20051;-76
2023/03/02 03:59:34;;;;;;;39.15;20.90;;;1.60;99.90;;;;;;5041163;28;20071;-76
2023/03/02 04:02:02;;;;;;;45.85;22.67;;;1.60;99.90;;;;;;5039489;28;20072;-77
2023/03/02 04:04:31;;;;;;;40.05;21.42;;;1.60;99.90;;;;;;5018870;28;20587;-75
2023/03/02 04:06:57;;;;;;;39.85;21.13;;;1.70;99.90;;;;;;5045301;28;20043;-77
2023/03/02 04:09:23;;;;;;;40.50;22.10;;;1.60;99.90;;;;;;5039391;28;20039;-76
2023/03/02 04:11:52;;;;;;;45.75;23.92;;;1.60;99.90;;;;;;5019185;28;20064;-74
2023/03/02 04:14:19;;;;;;;40.75;22.75;;;1.60;99.90;;;;;;5038592;28;20682;-76
2023/03/02 04:16:45;;;;;;;43.40;22.80;;;1.70;99.90;;;;;;5039769;28;20075;-76
2023/03/02 04:19:12;;;;;;;45.55;24.20;;;1.50;99.90;;;;;;5035570;28;20070;-76
2023/03/02 04:21:39;;;;;;;46.03;22.17;;;1.50;99.90;;;;;;5034531;28;20052;-77
2023/03/02 04:24:06;;;;;;;48.92;25.13;;;1.50;99.90;;;;;;5057734;28;20127;-77
2023/03/02 04:26:33;;;;;;;48.35;23.65;;;1.50;99.90;;;;;;5053940;28;20402;-76
2023/03/02 04:28:58;;;;;;;47.55;23.45;;;1.50;99.90;;;;;;5050799;28;20079;-76
2023/03/02 04:31:24;;;;;;;47.60;24.00;;;1.50;99.90;;;;;;5031221;28;20056;-76
2023/03/02 04:33:50;;;;;;;44.20;23.10;;;1.60;99.90;;;;;;5030578;28;21975;-77
2023/03/02 04:36:16;;;;;;;45.75;24.63;;;1.50;99.90;;;;;;5035949;28;20040;-77
2023/03/02 04:38:41;;;;;;;45.97;23.95;;;1.50;99.90;;;;;;5037305;28;20506;-76
2023/03/02 04:41:07;;;;;;;45.92;24.23;;;1.50;99.90;;;;;;5055730;28;20051;-76
2023/03/02 04:43:33;;;;;;;42.85;23.92;;;1.50;99.90;;;;;;5035878;28;20483;-76
2023/03/02 04:45:59;;;;;;;49.72;25.27;;;1.50;99.90;;;;;;5060152;28;20059;-77
2023/03/02 04:48:24;;;;;;;45.88;23.63;;;1.50;99.90;;;;;;5032068;28;20079;-76
2023/03/02 04:50:50;;;;;;;44.50;22.23;;;1.80;99.90;;;;;;5035345;28;20052;-76
2023/03/02 04:53:16;;;;;;;47.17;23.25;;;1.60;99.90;;;;;;5049060;28;20056;-76
2023/03/02 04:55:42;;;;;;;44.30;23.23;;;1.50;99.90;;;;;;5037277;28;20044;-76
2023/03/02 04:58:08;;;;;;;55.50;23.80;;;1.50;99.90;;;;;;5050822;28;20115;-76
2023/03/02 05:00:34;;;;;;;51.40;23.27;;;1.50;99.90;;;;;;5049381;28;20059;-75
2023/03/02 05:03:04;;;;;;;52.55;23.58;;;2.20;99.90;;;;;;5030835;28;20049;-77
2023/03/02 05:05:30;;;;;;;75.25;24.30;;;1.50;99.90;;;;;;5048763;28;20056;-77
2023/03/02 05:07:59;;;;;;;49.10;23.48;;;1.50;99.90;;;;;;5030787;28;20040;-77
2023/03/02 05:10:27;;;;;;;78.18;26.45;;;1.50;99.90;;;;;;5032875;28;21024;-76
2023/03/02 05:12:54;;;;;;;68.22;24.80;;;1.40;99.90;;;;;;5053526;28;20040;-77
2023/03/02 05:15:46;;;;;;;60.50;24.90;;;1.40;99.90;;;;;;5048466;28;20049;-76
2023/03/02 05:18:12;;;;;;;61.90;22.77;;;1.30;99.90;;;;;;5018384;28;20524;-76
2023/03/02 05:20:39;;;;;;;56.60;24.05;;;1.40;99.90;;;;;;5038312;28;20086;-76
2023/03/02 05:23:08;;;;;;;81.88;25.08;;;1.30;99.90;;;;;;5034590;28;20438;-76
2023/03/02 05:25:36;;;;;;;59.85;24.00;;;1.60;99.90;;;;;;5035528;28;20737;-76
2023/03/02 05:28:03;;;;;;;74.10;26.63;;;1.30;99.90;;;;;;5019520;28;20777;-77
2023/03/02 05:30:31;;;;;;;72.22;25.58;;;1.30;99.90;;;;;;5033541;28;20082;-76
2023/03/02 05:32:57;;;;;;;110.97;26.25;;;1.70;99.90;;;;;;5051724;28;20045;-76
2023/03/02 05:35:24;;;;;;;65.28;24.77;;;1.20;99.90;;;;;;5046789;28;20121;-76
2023/03/02 05:37:49;;;;;;;57.95;24.58;;;1.20;99.90;;;;;;5012618;28;20511;-75
2023/03/02 05:40:18;;;;;;;73.00;27.05;;;2.00;99.90;;;;;;5051717;28;20044;-76
2023/03/02 05:42:44;;;;;;;83.45;26.77;;;1.20;99.90;;;;;;5019383;28;20409;-76
2023/03/02 05:45:22;;;;;;;94.90;27.83;;;1.60;99.90;;;;;;5053182;28;20041;-77
2023/03/02 05:47:48;;;;;;;75.78;25.70;;;1.20;99.90;;;;;;5014967;28;20048;-77
2023/03/02 05:50:14;;;;;;;120.90;25.90;;;1.30;99.90;;;;;;5029098;28;20092;-76
2023/03/02 05:52:40;;;;;;;105.85;24.20;;;1.20;99.90;;;;;;5050017;28;20053;-78
2023/03/02 05:55:06;;;;;;;61.05;24.15;;;1.20;99.90;;;;;;5032088;28;20122;-76
2023/03/02 05:57:33;;;;;;;81.20;24.77;;;1.20;99.90;;;;;;5046634;28;20044;-77
2023/03/02 05:59:59;;;;;;;96.55;24.23;;;1.40;99.90;;;;;;5038693;28;20048;-76
2023/03/02 06:02:24;;;;;;;71.32;23.38;;;1.20;99.90;;;;;;5048230;28;20117;-76
2023/03/02 06:04:50;;;;;;;88.28;24.27;;;1.10;99.90;;;;;;5040307;28;20056;-76
2023/03/02 06:07:16;;;;;;;74.55;23.42;;;2.10;99.90;;;;;;5050781;28;20061;-78
2023/03/02 06:09:41;;;;;;;87.72;23.08;;;1.90;99.90;;;;;;5057332;28;20044;-76
2023/03/02 06:12:08;;;;;;;100.65;24.88;;;1.10;99.90;;;;;;5040472;28;20204;-76
2023/03/02 06:14:34;;;;;;;111.60;21.73;;;1.00;99.90;;;;;;5055910;28;20043;-77
2023/03/02 06:17:00;;;;;;;70.78;23.63;;;1.00;99.90;;;;;;5036690;28;20071;-77
2023/03/02 06:19:26;;;;;;;97.20;23.92;;;0.90;99.90;;;;;;5025145;28;20044;-75
2023/03/02 06:21:52;;;;;;;84.95;25.13;;;1.90;99.90;;;;;;5020386;28;20045;-75
2023/03/02 06:24:18;;;;;;;88.70;24.73;;;0.90;99.90;;;;;;5042094;28;20131;-75
2023/03/02 06:26:44;;;;;;;70.85;23.73;;;1.70;99.90;;;;;;5046474;28;20501;-75
2023/03/02 06:29:10;;;;;;;73.05;24.17;;;0.90;99.90;;;;;;5033102;28;20040;-75
2023/03/02 06:31:36;;;;;;;78.65;23.50;;;1.80;99.90;;;;;;5043938;28;20132;-75
2023/03/02 06:34:02;;;;;;;97.28;24.42;;;0.90;99.90;;;;;;5038502;28;20036;-75
2023/03/02 06:36:28;;;;;;;74.95;24.42;;;0.90;99.90;;;;;;5055830;28;20440;-75
2023/03/02 06:38:53;;;;;;;103.40;26.40;;;2.00;99.90;;;;;;5031814;28;20048;-75
2023/03/02 06:41:19;;;;;;;79.10;24.60;;;2.00;99.90;;;;;;5047082;28;20051;-75
2023/03/02 06:43:45;;;;;;;95.13;25.08;;;0.90;99.90;;;;;;5039090;28;20688;-75
2023/03/02 06:46:11;;;;;;;96.43;25.95;;;0.90;99.90;;;;;;5038733;28;20117;-75
2023/03/02 06:48:37;;;;;;;57.60;23.35;;;1.00;99.90;;;;;;5019740;28;20136;-75
2023/03/02 06:51:03;;;;;;;89.20;24.90;;;1.40;99.90;;;;;;5057267;28;20049;-75
2023/03/02 06:53:29;;;;;;;86.40;25.65;;;1.00;99.90;;;;;;5031445;28;20051;-74
2023/03/02 06:55:55;;;;;;;78.57;24.60;;;1.40;99.90;;;;;;5049466;28;20044;-75
2023/03/02 06:58:21;;;;;;;91.32;25.95;;;1.00;99.90;;;;;;5036896;28;20051;-76
2023/03/02 07:00:46;;;;;;;70.22;26.13;;;1.00;99.90;;;;;;5056968;28;20520;-75
2023/03/02 07:03:12;;;;;;;95.70;27.23;;;1.00;99.90;;;;;;5019596;28;20064;-75
2023/03/02 07:05:38;;;;;;;64.93;25.63;;;1.10;99.90;;;;;;5038045;28;20097;-76
2023/03/02 07:08:04;;;;;;;76.65;25.83;;;1.20;99.90;;;;;;5056193;28;20033;-75
2023/03/02 07:10:30;;;;;;;66.63;26.02;;;1.10;99.90;;;;;;5032927;28;20051;-75
2023/03/02 07:12:55;;;;;;;81.30;27.48;;;1.10;99.90;;;;;;5054531;28;20072;-75
2023/03/02 07:15:21;;;;;;;84.72;27.67;;;1.10;99.90;;;;;;5045918;28;20453;-75
2023/03/02 07:17:47;;;;;;;94.32;26.02;;;1.50;99.90;;;;;;5053122;28;20094;-76
2023/03/02 07:20:15;;;;;;;71.55;26.48;;;1.20;99.90;;;;;;5062039;28;20087;-75
2023/03/02 07:22:42;;;;;;;67.95;24.75;;;1.80;99.90;;;;;;5060126;28;20622;-74
2023/03/02 07:25:09;;;;;;;75.28;26.13;;;1.40;99.90;;;;;;5042123;28;20058;-75
2023/03/02 07:27:36;;;;;;;70.03;27.25;;;1.10;99.90;;;;;;5029143;28;20508;-75
2023/03/02 07:30:06;;;;;;;79.78;26.80;;;1.10;99.90;;;;;;5048029;28;20048;-75
2023/03/02 07:32:34;;;;;;;80.55;27.58;;;1.10;99.90;;;;;;5063058;28;20481;-75
2023/03/02 07:35:00;;;;;;;66.60;27.23;;;1.10;99.90;;;;;;5031456;28;20711;-75
2023/03/02 07:37:25;;;;;;;69.32;26.52;;;1.10;99.90;;;;;;5033096;28;20071;-75
2023/03/02 07:39:51;;;;;;;69.43;25.58;;;1.10;99.90;;;;;;5058403;28;20040;-74
2023/03/02 07:42:17;;;;;;;61.38;26.98;;;1.10;99.90;;;;;;5060413;28;20074;-75
2023/03/02 07:44:43;;;;;;;89.40;27.30;;;1.10;99.90;;;;;;5064977;28;20045;-75
2023/03/02 07:47:09;;;;;;;96.10;29.05;;;1.20;99.90;;;;;;5024351;28;20033;-75
2023/03/02 07:49:34;;;;;;;88.85;26.08;;;1.10;99.90;;;;;;5059656;28;20029;-75
2023/03/02 07:52:04;;;;;;;91.32;25.77;;;1.30;99.90;;;;;;5053882;28;20044;-77
2023/03/02 07:54:30;;;;;;;56.80;24.48;;;1.20;99.90;;;;;;5071938;28;20193;-75
2023/03/02 07:56:56;;;;;;;55.85;24.20;;;1.10;99.90;;;;;;5052887;28;20097;-76
2023/03/02 07:59:23;;;;;;;63.85;25.48;;;1.10;99.90;;;;;;5079703;28;20048;-75
2023/03/02 08:01:49;;;;;;;64.40;26.00;;;1.10;99.90;;;;;;5070241;28;20067;-76
2023/03/02 08:04:17;;;;;;;74.30;26.38;;;1.10;99.90;;;;;;5039716;28;20079;-75
2023/03/02 08:06:43;;;;;;;76.43;25.23;;;1.10;99.90;;;;;;5048079;28;20067;-75
2023/03/02 08:09:08;;;;;;;72.63;24.02;;;1.80;99.90;;;;;;5071139;28;20048;-75
2023/03/02 08:11:34;;;;;;;69.97;24.15;;;1.10;99.90;;;;;;5027002;28;20410;-75
2023/03/02 08:14:04;;;;;;;77.38;23.90;;;1.10;99.90;;;;;;5035674;28;20052;-75
2023/03/02 08:16:30;;;;;;;63.88;24.02;;;1.10;99.90;;;;;;5056658;28;20040;-76
2023/03/02 08:18:57;;;;;;;57.42;24.75;;;1.10;99.90;;;;;;5036330;28;20052;-76
2023/03/02 08:21:24;;;;;;;51.15;24.00;;;1.10;99.90;;;;;;5055454;28;20174;-76
2023/03/02 08:23:50;;;;;;;56.80;24.63;;;1.30;99.90;;;;;;5043356;28;20442;-75
2023/03/02 08:26:17;;;;;;;62.95;24.05;;;1.90;99.90;;;;;;5037299;28;20045;-75
2023/03/02 08:28:43;;;;;;;55.78;24.38;;;1.20;99.90;;;;;;5034155;28;20037;-76
2023/03/02 08:31:09;;;;;;;59.40;24.65;;;1.20;99.90;;;;;;5058935;28;20064;-76
2023/03/02 08:33:36;;;;;;;56.70;23.55;;;1.20;99.90;;;;;;5057279;28;20040;-75
2023/03/02 08:36:09;;;;;;;55.95;24.52;;;1.20;99.90;;;;;;5029234;28;20045;-77
2023/03/02 08:38:35;;;;;;;53.90;25.63;;;1.20;99.90;;;;;;5040228;28;20483;-77
2023/03/02 08:41:06;;;;;;;53.00;23.05;;;1.30;99.90;;;;;;5034163;28;20075;-74
2023/03/02 08:43:33;;;;;;;52.30;23.35;;;1.20;99.90;;;;;;5057464;28;20056;-74
2023/03/02 08:45:59;;;;;;;62.80;25.75;;;1.20;99.90;;;;;;5034106;28;20049;-75
2023/03/02 08:48:26;;;;;;;59.97;27.02;;;1.20;99.90;;;;;;5050885;28;20072;-75
2023/03/02 08:51:03;;;;;;;53.70;24.20;;;1.30;99.90;;;;;;5033821;28;20053;-75
2023/03/02 08:53:31;;;;;;;54.90;25.33;;;1.20;99.90;;;;;;5055457;28;20049;-76
2023/03/02 08:55:57;;;;;;;52.10;25.05;;;1.30;99.90;;;;;;5022095;28;20214;-75
2023/03/02 08:58:23;;;;;;;56.38;25.25;;;1.40;99.90;;;;;;5040884;28;20047;-75
2023/03/02 09:00:49;;;;;;;55.38;25.45;;;1.40;99.90;;;;;;5040226;28;20045;-76
2023/03/02 09:03:15;;;;;;;57.08;25.50;;;1.40;99.90;;;;;;5045494;28;20036;-75
2023/03/02 09:05:42;;;;;;;58.03;25.60;;;1.50;99.90;;;;;;5030805;28;20071;-76
2023/03/02 09:08:08;;;;;;;51.47;24.15;;;1.50;99.90;;;;;;5062466;28;20062;-76
2023/03/02 09:10:34;;;;;;;53.90;25.17;;;1.50;99.90;;;;;;5070989;28;20040;-75
2023/03/02 09:13:00;;;;;;;52.30;23.50;;;1.60;99.90;;;;;;5073465;28;20044;-76
2023/03/02 09:15:25;;;;;;;56.55;24.58;;;1.60;99.90;;;;;;5068829;28;20039;-76
2023/03/02 09:17:51;;;;;;;51.35;23.85;;;1.70;99.90;;;;;;5063752;28;20041;-69
2023/03/02 09:20:17;;;;;;;55.28;24.67;;;1.70;99.90;;;;;;5071829;28;20044;-70
2023/03/02 09:22:47;;;;;;;54.05;24.17;;;1.70;99.90;;;;;;5062313;28;20044;-70
2023/03/02 09:25:14;;;;;;;54.08;22.63;;;1.70;99.90;;;;;;5052570;28;20052;-70
2023/03/02 09:27:40;;;;;;;55.03;23.38;;;1.70;99.90;;;;;;5045070;28;20665;-77
2023/03/02 09:30:07;;;;;;;53.42;23.67;;;2.20;99.90;;;;;;5056318;28;20078;-76
2023/03/02 09:32:33;;;;;;;49.10;21.80;;;1.80;99.90;;;;;;5052692;28;20063;-76
2023/03/02 09:34:58;;;;;;;54.75;23.17;;;1.80;99.90;;;;;;5052382;28;20045;-76
2023/03/02 09:37:24;;;;;;;50.22;22.35;;;1.90;99.90;;;;;;5051028;28;20486;-75
2023/03/02 09:39:50;;;;;;;54.28;22.92;;;1.90;99.90;;;;;;5031262;28;20045;-76
2023/03/02 09:42:26;;;;;;;45.15;21.42;;;2.60;99.90;;;;;;5028621;28;20059;-76
2023/03/02 09:45:19;;;;;;;48.38;22.85;;;1.90;99.90;;;;;;5046962;28;20048;-77
2023/03/02 09:48:04;;;;;;;46.00;21.70;;;1.90;99.90;;;;;;5040312;28;20272;-76
2023/03/02 09:50:31;;;;;;;40.85;21.15;;;1.90;99.90;;;;;;5055741;28;20115;-75
2023/03/02 09:53:10;;;;;;;40.70;20.65;;;2.00;99.90;;;;;;5039064;28;20052;-76
2023/03/02 09:55:37;;;;;;;43.22;20.25;;;2.00;99.90;;;;;;5051255;28;20037;-75
2023/03/02 09:58:14;;;;;;;39.75;20.05;;;2.00;99.90;;;;;;5031039;28;20074;-75
2023/03/02 10:00:42;;;;;;;41.85;20.75;;;1.90;99.90;;;;;;5047253;28;20053;-75
2023/03/02 10:03:22;;;;;;;42.13;20.90;;;2.50;99.90;;;;;;5033228;28;20827;-76
2023/03/02 10:05:50;;;;;;;41.45;19.35;;;2.00;99.90;;;;;;5050643;28;20440;-76
2023/03/02 10:08:23;;;;;;;39.88;20.17;;;2.00;99.90;;;;;;5037000;28;20047;-76
2023/03/02 10:11:23;;;;;;;41.83;19.15;;;2.10;99.90;;;;;;5045986;28;20512;-76
2023/03/02 10:14:07;;;;;;;40.72;19.40;;;2.00;99.90;;;;;;5021277;28;20074;-76
2023/03/02 10:17:13;;;;;;;38.83;19.30;;;2.00;99.90;;;;;;5033438;28;20541;-77
2023/03/02 10:19:45;;;;;;;36.22;18.05;;;2.10;99.90;;;;;;5039210;28;20052;-76
2023/03/02 10:22:15;;;;;;;34.50;17.63;;;2.10;99.90;;;;;;5015927;28;20405;-75
2023/03/02 10:24:56;;;;;;;34.67;16.88;;;2.10;99.90;;;;;;5028371;28;20612;-75
2023/03/02 10:27:23;;;;;;;36.47;16.88;;;2.10;99.90;;;;;;5046599;28;20421;-75
2023/03/02 10:30:05;;;;;;;34.60;16.20;;;2.20;99.90;;;;;;5022447;28;20420;-75
2023/03/02 10:32:37;;;;;;;34.25;16.30;;;2.20;99.90;;;;;;5032143;28;20055;-75
2023/03/02 10:35:22;;;;;;;36.45;16.92;;;2.30;99.90;;;;;;5034068;28;20601;-75
2023/03/02 10:38:10;;;;;;;37.80;18.45;;;2.30;99.90;;;;;;5017618;28;20190;-76
2023/03/02 10:40:45;;;;;;;35.95;17.35;;;2.40;99.90;;;;;;5034062;28;20041;-75
2023/03/02 10:43:30;;;;;;;35.88;16.42;;;2.40;99.90;;;;;;5049389;28;20036;-75
2023/03/02 10:46:00;;;;;;;31.95;15.15;;;2.50;99.90;;;;;;5037622;28;20130;-75
2023/03/02 10:48:26;;;;;;;29.83;15.85;;;2.60;99.90;;;;;;5020176;28;20160;-75
2023/03/02 10:50:54;;;;;;;30.63;15.40;;;2.60;99.90;;;;;;5055625;28;20076;-76
2023/03/02 10:53:20;;;;;;;28.65;13.85;;;2.60;99.90;;;;;;5052831;28;20238;-75
2023/03/02 10:55:49;;;;;;;28.67;15.15;;;2.70;99.90;;;;;;5060636;28;20624;-76
2023/03/02 10:58:28;;;;;;;30.75;14.52;;;2.80;99.90;;;;;;5060990;28;20068;-76
2023/03/02 11:01:03;;;;;;;27.38;14.32;;;2.80;99.90;;;;;;5039095;28;20118;-75
2023/03/02 11:03:29;;;;;;;26.88;12.65;;;2.90;99.90;;;;;;5056276;28;20044;-76
2023/03/02 11:05:57;;;;;;;25.70;13.35;;;2.90;99.90;;;;;;5045453;28;20589;-76
2023/03/02 11:08:25;;;;;;;26.25;14.10;;;2.90;99.90;;;;;;5036431;28;20047;-75
2023/03/02 11:10:51;;;;;;;30.90;13.35;;;2.90;99.90;;;;;;5043980;28;20040;-76
2023/03/02 11:13:26;;;;;;;29.55;14.18;;;3.00;99.90;;;;;;5066437;28;20040;-76
2023/03/02 11:15:59;;;;;;;30.70;14.90;;;3.00;99.90;;;;;;5064419;28;20036;-75
2023/03/02 11:18:41;;;;;;;32.47;14.77;;;3.10;99.90;;;;;;5070454;28;20044;-75
2023/03/02 11:21:12;;;;;;;29.23;14.30;;;3.20;99.90;;;;;;5050323;28;20531;-76
2023/03/02 11:23:59;;;;;;;26.92;13.32;;;3.40;99.90;;;;;;5071928;28;20051;-76
2023/03/02 11:26:42;;;;;;;30.23;13.32;;;3.40;99.90;;;;;;5061341;28;20390;-76
2023/03/02 11:29:21;;;;;;;28.17;13.50;;;3.50;99.90;;;;;;5050762;28;20053;-75
2023/03/02 11:31:50;;;;;;;26.88;13.18;;;3.60;99.90;;;;;;5048225;28;20691;-75
2023/03/02 11:34:48;;;;;;;27.77;12.70;;;3.80;99.90;;;;;;5064626;28;20123;-75
2023/03/02 11:37:48;;;;;;;27.60;14.20;;;3.60;99.90;;;;;;5074201;28;20493;-75
2023/03/02 11:40:39;;;;;;;25.45;13.18;;;3.70;99.90;;;;;;5066151;28;20110;-76
2023/03/02 11:43:07;;;;;;;27.42;13.15;;;3.80;99.90;;;;;;5047441;28;20414;-75
2023/03/02 11:45:41;;;;;;;24.73;12.60;;;4.50;99.90;;;;;;5061619;28;20064;-76
2023/03/02 11:48:38;;;;;;;24.27;12.45;;;4.00;99.90;;;;;;5055388;28;20040;-75
2023/03/02 11:51:13;;;;;;;20.92;10.77;;;4.10;99.90;;;;;;5068860;28;20548;-75
2023/03/02 11:54:02;;;;;;;23.83;12.35;;;4.10;99.90;;;;;;5067676;28;20040;-75
2023/03/02 11:56:35;;;;;;;23.30;12.20;;;4.20;99.90;;;;;;5049662;28;20060;-75
2023/03/02 11:59:16;;;;;;;24.23;11.90;;;4.20;99.90;;;;;;5030943;28;20055;-75
2023/03/02 12:01:46;;;;;;;30.90;14.30;;;4.30;99.90;;;;;;5055001;28;20101;-75
2023/03/02 12:04:33;;;;;;;31.37;14.97;;;4.30;99.90;;;;;;5071948;28;20116;-75
2023/03/02 12:07:15;;;;;;;28.70;13.93;;;4.40;99.90;;;;;;5050851;28;20101;-75
2023/03/02 12:09:41;;;;;;;25.55;13.15;;;4.90;99.90;;;;;;5040882;28;20120;-75
2023/03/02 12:12:25;;;;;;;30.50;14.90;;;4.60;99.90;;;;;;5054862;28;20613;-75
2023/03/02 12:14:51;;;;;;;28.75;13.90;;;4.70;99.90;;;;;;5075161;28;20055;-75
2023/03/02 12:17:26;;;;;;;30.33;14.50;;;5.10;99.90;;;;;;5030256;28;20060;-74
2023/03/02 12:20:06;;;;;;;30.92;15.82;;;4.90;99.90;;;;;;5050076;28;20123;-75
2023/03/02 12:22:33;;;;;;;38.15;16.85;;;4.90;99.90;;;;;;5049622;28;20059;-75
2023/03/02 12:25:18;;;;;;;34.63;17.05;;;5.00;99.90;;;;;;5052908;28;20527;-75
2023/03/02 12:27:46;;;;;;;34.05;16.45;;;5.10;99.90;;;;;;5042743;28;20076;-76
2023/03/02 12:30:15;;;;;;;34.60;16.63;;;5.20;99.90;;;;;;5068423;28;20047;-74
2023/03/02 12:32:57;;;;;;;35.00;17.77;;;5.20;99.90;;;;;;5033608;28;20059;-75
2023/03/02 12:35:24;;;;;;;34.65;17.55;;;5.30;99.90;;;;;;5042821;28;20134;-75
2023/03/02 12:37:57;;;;;;;35.42;17.85;;;5.20;99.90;;;;;;5043847;28;20047;-76
2023/03/02 12:41:08;;;;;;;34.05;17.92;;;5.30;99.90;;;;;;5046345;28;20048;-76
2023/03/02 12:43:36;;;;;;;32.70;16.95;;;5.40;99.90;;;;;;5050373;28;20059;-75
2023/03/02 12:46:25;;;;;;;29.65;15.48;;;5.40;99.90;;;;;;5058125;28;20044;-75
2023/03/02 12:49:16;;;;;;;30.92;15.85;;;5.40;99.90;;;;;;5060028;28;20635;-76